Aérodrome :
LOGIN :

S'inscrire | Disclaimer

   EN    FR    IT 

 










Légende :    VFR   VFR Marginal   IFR   IFR Intensif   IFR Très Intensif
Visi : 
Plafond : 
>= 8 km
>= 3000ft
5 à 8 km
1000 à 3000 ft
1500m à 5 km
500 à 1000 ft
800 à 1500m
200 à 500 ft
< 800m
< 200 ft
Symboles :   Orages  Brouillard  Fortes neiges  Fortes précipitations  Vent > 20 kt
SIGMETs :   Divers  Orages  Givrage  Turbulence  Onde Orograph.  Cendres Volcan.







- Altitude de l'aérodrome : 876 ft
- Code IATA : MBX


LJMB - Maribor

DERNIER METAR :
  • 210000Z AUTO 01002KT 0200 R32/0700N FG VV003 01/01 Q1012

METARs EXPIRÉS :
  • 202330Z AUTO VRB01KT 0400 R32/1700D FG OVC002/// 01/01 Q1013
  • 202300Z AUTO VRB02KT 2100 BR OVC004/// 01/01 Q1013
  • 202230Z AUTO VRB01KT 3200 BR OVC003/// 02/01 Q1013
  • 202200Z AUTO 18003KT 3800 BR OVC004/// 02/01 Q1014
  • 202130Z AUTO 20001KT 4000 BR OVC006/// 02/01 Q1013

TAF TAF LJMB
Valide du 21 à 00h jusqu'au 22 à 00h UTC


202300Z 2100/2124 VRB02KT 4000 BR OVC005
PROB30
TEMPO 2100/2112 DZ BR
TEMPO 2100/2112 6000 SCT005 BKN030
Pas de NOTAMs connus pour ce terrain.



MET'MAP, la Météo Aéronautique d'un coup d'oeil ! - Copyright ORBIFLY Décembre 2007 - Disclaimer

ORBIFLY MET'MAP TEAM :

Programmation & Développement : Alexandra Zaïnal
Conception & Développement : Baudouin d'Aumeries
Co-Programmation & Développement : Marc-Olivier Méhu
Soutien technique & logistique : Manuel Goepfert

Contact : metmap@orbifly.com




SOURCES & CREDITS :

   NOAA